sensor_id;sensor_type;location;lat;lon;timestamp;temperature;humidity
770;DHT22;368;48.698;9.116;2024-02-26T00:01:06;5.90;99.90
770;DHT22;368;48.698;9.116;2024-02-26T00:03:32;5.80;99.90
770;DHT22;368;48.698;9.116;2024-02-26T00:06:01;5.50;99.90
770;DHT22;368;48.698;9.116;2024-02-26T00:08:28;5.60;99.90
770;DHT22;368;48.698;9.116;2024-02-26T00:10:55;5.80;99.90
770;DHT22;368;48.698;9.116;2024-02-26T00:13:21;5.50;99.90
770;DHT22;368;48.698;9.116;2024-02-26T00:15:48;5.80;99.90
770;DHT22;368;48.698;9.116;2024-02-26T00:18:16;6.00;99.90
770;DHT22;368;48.698;9.116;2024-02-26T00:20:43;5.90;99.90
770;DHT22;368;48.698;9.116;2024-02-26T00:23:10;5.60;99.90
770;DHT22;368;48.698;9.116;2024-02-26T00:25:37;5.70;99.90
770;DHT22;368;48.698;9.116;2024-02-26T00:28:04;5.70;99.90
770;DHT22;368;48.698;9.116;2024-02-26T00:30:31;5.50;99.90
770;DHT22;368;48.698;9.116;2024-02-26T00:32:57;5.30;99.90
770;DHT22;368;48.698;9.116;2024-02-26T00:35:25;5.40;99.90
770;DHT22;368;48.698;9.116;2024-02-26T00:37:52;5.60;99.90
770;DHT22;368;48.698;9.116;2024-02-26T00:40:18;5.70;99.90
770;DHT22;368;48.698;9.116;2024-02-26T00:42:45;5.60;99.90
770;DHT22;368;48.698;9.116;2024-02-26T00:45:13;5.90;99.90
770;DHT22;368;48.698;9.116;2024-02-26T00:47:41;5.90;99.90
770;DHT22;368;48.698;9.116;2024-02-26T00:50:10;5.80;99.90
770;DHT22;368;48.698;9.116;2024-02-26T00:52:38;5.70;99.90
770;DHT22;368;48.698;9.116;2024-02-26T00:55:06;5.50;99.90
770;DHT22;368;48.698;9.116;2024-02-26T00:57:33;5.60;99.90
770;DHT22;368;48.698;9.116;2024-02-26T01:00:00;5.90;99.90
770;DHT22;368;48.698;9.116;2024-02-26T01:02:27;6.10;99.90
770;DHT22;368;48.698;9.116;2024-02-26T01:04:54;5.90;99.90
770;DHT22;368;48.698;9.116;2024-02-26T01:07:20;6.00;99.90
770;DHT22;368;48.698;9.116;2024-02-26T01:09:48;5.80;99.90
770;DHT22;368;48.698;9.116;2024-02-26T01:12:15;6.10;99.90
770;DHT22;368;48.698;9.116;2024-02-26T01:14:42;6.00;99.90
770;DHT22;368;48.698;9.116;2024-02-26T01:17:09;5.80;99.90
770;DHT22;368;48.698;9.116;2024-02-26T01:19:35;5.50;99.90
770;DHT22;368;48.698;9.116;2024-02-26T01:22:02;5.70;99.90
770;DHT22;368;48.698;9.116;2024-02-26T01:24:29;5.60;99.90
770;DHT22;368;48.698;9.116;2024-02-26T01:26:57;5.60;99.90
770;DHT22;368;48.698;9.116;2024-02-26T01:29:24;5.50;99.90
770;DHT22;368;48.698;9.116;2024-02-26T01:31:51;5.80;99.90
770;DHT22;368;48.698;9.116;2024-02-26T01:34:18;5.90;99.90
770;DHT22;368;48.698;9.116;2024-02-26T01:36:44;5.80;99.90
770;DHT22;368;48.698;9.116;2024-02-26T01:39:11;5.90;99.90
770;DHT22;368;48.698;9.116;2024-02-26T01:41:39;5.60;99.90
770;DHT22;368;48.698;9.116;2024-02-26T01:44:07;5.90;99.90
770;DHT22;368;48.698;9.116;2024-02-26T01:46:34;5.80;99.90
770;DHT22;368;48.698;9.116;2024-02-26T01:49:02;5.80;99.90
770;DHT22;368;48.698;9.116;2024-02-26T01:51:30;5.70;99.90
770;DHT22;368;48.698;9.116;2024-02-26T01:53:58;5.70;99.90
770;DHT22;368;48.698;9.116;2024-02-26T01:56:25;5.70;99.90
770;DHT22;368;48.698;9.116;2024-02-26T01:58:56;6.20;99.90
770;DHT22;368;48.698;9.116;2024-02-26T02:01:25;6.20;99.90
770;DHT22;368;48.698;9.116;2024-02-26T02:03:54;6.20;99.90
770;DHT22;368;48.698;9.116;2024-02-26T02:06:21;6.10;99.90
770;DHT22;368;48.698;9.116;2024-02-26T02:08:48;6.30;97.90
770;DHT22;368;48.698;9.116;2024-02-26T02:11:15;6.40;97.50
770;DHT22;368;48.698;9.116;2024-02-26T02:13:43;6.40;97.20
770;DHT22;368;48.698;9.116;2024-02-26T02:16:09;6.50;97.40
770;DHT22;368;48.698;9.116;2024-02-26T02:18:38;6.70;96.40
770;DHT22;368;48.698;9.116;2024-02-26T02:21:06;6.60;96.90
770;DHT22;368;48.698;9.116;2024-02-26T02:23:32;6.70;97.30
770;DHT22;368;48.698;9.116;2024-02-26T02:25:59;6.50;98.30
770;DHT22;368;48.698;9.116;2024-02-26T02:28:27;6.70;98.80
770;DHT22;368;48.698;9.116;2024-02-26T02:30:54;6.50;97.90
770;DHT22;368;48.698;9.116;2024-02-26T02:33:22;6.40;97.70
770;DHT22;368;48.698;9.116;2024-02-26T02:35:49;6.50;99.20
770;DHT22;368;48.698;9.116;2024-02-26T02:38:20;6.70;99.30
770;DHT22;368;48.698;9.116;2024-02-26T02:40:49;6.60;99.80
770;DHT22;368;48.698;9.116;2024-02-26T02:43:16;6.30;99.90
770;DHT22;368;48.698;9.116;2024-02-26T02:45:42;6.50;99.90
770;DHT22;368;48.698;9.116;2024-02-26T02:48:10;6.60;99.90
770;DHT22;368;48.698;9.116;2024-02-26T02:50:37;6.70;99.90
770;DHT22;368;48.698;9.116;2024-02-26T02:53:04;6.50;99.90
770;DHT22;368;48.698;9.116;2024-02-26T02:55:32;6.40;99.90
770;DHT22;368;48.698;9.116;2024-02-26T02:57:59;6.30;99.90
770;DHT22;368;48.698;9.116;2024-02-26T03:00:26;6.10;99.90
770;DHT22;368;48.698;9.116;2024-02-26T03:02:53;6.10;99.90
770;DHT22;368;48.698;9.116;2024-02-26T03:05:19;6.30;99.90
770;DHT22;368;48.698;9.116;2024-02-26T03:07:46;6.60;99.50
770;DHT22;368;48.698;9.116;2024-02-26T03:10:13;6.70;99.90
770;DHT22;368;48.698;9.116;2024-02-26T03:12:41;6.90;99.90
770;DHT22;368;48.698;9.116;2024-02-26T03:15:09;6.60;99.90
770;DHT22;368;48.698;9.116;2024-02-26T03:17:37;6.70;99.90
770;DHT22;368;48.698;9.116;2024-02-26T03:20:05;6.50;99.90
770;DHT22;368;48.698;9.116;2024-02-26T03:22:34;6.90;99.90
770;DHT22;368;48.698;9.116;2024-02-26T03:25:00;7.30;98.40
770;DHT22;368;48.698;9.116;2024-02-26T03:27:27;7.30;98.60
770;DHT22;368;48.698;9.116;2024-02-26T03:29:55;7.60;98.60
770;DHT22;368;48.698;9.116;2024-02-26T03:32:22;7.20;98.30
770;DHT22;368;48.698;9.116;2024-02-26T03:34:49;7.40;98.30
770;DHT22;368;48.698;9.116;2024-02-26T03:37:19;7.40;98.50
770;DHT22;368;48.698;9.116;2024-02-26T03:39:46;7.10;99.20
770;DHT22;368;48.698;9.116;2024-02-26T03:42:13;7.10;99.90
770;DHT22;368;48.698;9.116;2024-02-26T03:44:40;7.10;99.90
770;DHT22;368;48.698;9.116;2024-02-26T03:47:08;6.90;99.90
770;DHT22;368;48.698;9.116;2024-02-26T03:49:35;7.00;99.90
770;DHT22;368;48.698;9.116;2024-02-26T03:52:02;7.00;99.90
770;DHT22;368;48.698;9.116;2024-02-26T03:54:28;7.00;99.90
770;DHT22;368;48.698;9.116;2024-02-26T03:56:55;6.90;99.90
770;DHT22;368;48.698;9.116;2024-02-26T03:59:22;6.50;99.90
770;DHT22;368;48.698;9.116;2024-02-26T04:01:50;6.60;99.90
770;DHT22;368;48.698;9.116;2024-02-26T04:04:18;6.50;99.90
770;DHT22;368;48.698;9.116;2024-02-26T04:06:45;6.70;99.90
770;DHT22;368;48.698;9.116;2024-02-26T04:09:14;6.70;99.90
770;DHT22;368;48.698;9.116;2024-02-26T04:11:41;6.70;99.90
770;DHT22;368;48.698;9.116;2024-02-26T04:14:08;6.80;99.90
770;DHT22;368;48.698;9.116;2024-02-26T04:16:37;6.50;99.90
770;DHT22;368;48.698;9.116;2024-02-26T04:19:04;6.60;99.90
770;DHT22;368;48.698;9.116;2024-02-26T04:21:32;6.50;99.90
770;DHT22;368;48.698;9.116;2024-02-26T04:23:58;6.50;99.90
770;DHT22;368;48.698;9.116;2024-02-26T04:26:27;6.40;99.90
770;DHT22;368;48.698;9.116;2024-02-26T04:28:54;6.30;99.90
770;DHT22;368;48.698;9.116;2024-02-26T04:31:21;6.60;99.90
770;DHT22;368;48.698;9.116;2024-02-26T04:33:47;6.40;99.90
770;DHT22;368;48.698;9.116;2024-02-26T04:36:15;6.60;99.90
770;DHT22;368;48.698;9.116;2024-02-26T04:38:43;6.30;99.90
770;DHT22;368;48.698;9.116;2024-02-26T04:41:10;6.50;99.90
770;DHT22;368;48.698;9.116;2024-02-26T04:43:37;6.10;99.90
770;DHT22;368;48.698;9.116;2024-02-26T04:46:07;6.20;99.90
770;DHT22;368;48.698;9.116;2024-02-26T04:48:34;6.20;99.90
770;DHT22;368;48.698;9.116;2024-02-26T04:51:00;6.30;99.90
770;DHT22;368;48.698;9.116;2024-02-26T04:53:27;6.00;99.90
770;DHT22;368;48.698;9.116;2024-02-26T04:55:56;6.40;99.90
770;DHT22;368;48.698;9.116;2024-02-26T04:58:22;6.40;99.90
770;DHT22;368;48.698;9.116;2024-02-26T05:00:49;6.30;99.90
770;DHT22;368;48.698;9.116;2024-02-26T05:03:16;6.40;99.90
770;DHT22;368;48.698;9.116;2024-02-26T05:05:43;6.30;99.90
770;DHT22;368;48.698;9.116;2024-02-26T05:08:10;6.40;99.90
770;DHT22;368;48.698;9.116;2024-02-26T05:10:37;6.20;99.90
770;DHT22;368;48.698;9.116;2024-02-26T05:13:07;6.30;99.90
770;DHT22;368;48.698;9.116;2024-02-26T05:15:34;6.40;99.90
770;DHT22;368;48.698;9.116;2024-02-26T05:18:01;6.10;99.90
770;DHT22;368;48.698;9.116;2024-02-26T05:20:28;6.50;99.90
770;DHT22;368;48.698;9.116;2024-02-26T05:22:56;6.50;99.90
770;DHT22;368;48.698;9.116;2024-02-26T05:25:24;6.40;99.90
770;DHT22;368;48.698;9.116;2024-02-26T05:27:51;6.40;99.90
770;DHT22;368;48.698;9.116;2024-02-26T05:30:19;6.30;99.90
770;DHT22;368;48.698;9.116;2024-02-26T05:32:46;6.50;99.90
770;DHT22;368;48.698;9.116;2024-02-26T05:35:12;6.50;99.90
770;DHT22;368;48.698;9.116;2024-02-26T05:37:40;6.30;99.90
770;DHT22;368;48.698;9.116;2024-02-26T05:40:07;6.20;99.90
770;DHT22;368;48.698;9.116;2024-02-26T05:42:34;5.90;99.90
770;DHT22;368;48.698;9.116;2024-02-26T05:45:01;5.80;99.90
770;DHT22;368;48.698;9.116;2024-02-26T05:47:32;5.80;99.90
770;DHT22;368;48.698;9.116;2024-02-26T05:49:59;6.20;99.90
770;DHT22;368;48.698;9.116;2024-02-26T05:52:26;6.20;99.90
770;DHT22;368;48.698;9.116;2024-02-26T05:54:54;5.90;99.90
770;DHT22;368;48.698;9.116;2024-02-26T05:57:21;5.80;99.90
770;DHT22;368;48.698;9.116;2024-02-26T05:59:48;6.10;99.90
770;DHT22;368;48.698;9.116;2024-02-26T06:02:15;5.90;99.90
770;DHT22;368;48.698;9.116;2024-02-26T06:04:43;5.80;99.90
770;DHT22;368;48.698;9.116;2024-02-26T06:07:12;5.60;99.90
770;DHT22;368;48.698;9.116;2024-02-26T06:09:38;5.60;99.90
770;DHT22;368;48.698;9.116;2024-02-26T06:12:06;5.50;99.90
770;DHT22;368;48.698;9.116;2024-02-26T06:14:33;5.20;99.90
770;DHT22;368;48.698;9.116;2024-02-26T06:16:59;5.10;99.90
770;DHT22;368;48.698;9.116;2024-02-26T06:19:26;5.20;99.90
770;DHT22;368;48.698;9.116;2024-02-26T06:21:54;5.10;99.90
770;DHT22;368;48.698;9.116;2024-02-26T06:24:21;5.00;99.90
770;DHT22;368;48.698;9.116;2024-02-26T06:26:48;5.00;99.90
770;DHT22;368;48.698;9.116;2024-02-26T06:29:15;5.10;99.90
770;DHT22;368;48.698;9.116;2024-02-26T06:31:41;5.00;99.90
770;DHT22;368;48.698;9.116;2024-02-26T06:34:09;5.10;99.90
770;DHT22;368;48.698;9.116;2024-02-26T06:36:37;5.20;99.90
770;DHT22;368;48.698;9.116;2024-02-26T06:39:05;4.90;99.90
770;DHT22;368;48.698;9.116;2024-02-26T06:41:32;5.30;99.90
770;DHT22;368;48.698;9.116;2024-02-26T06:43:58;5.10;99.90
770;DHT22;368;48.698;9.116;2024-02-26T06:46:25;5.10;99.90
770;DHT22;368;48.698;9.116;2024-02-26T06:48:54;5.40;99.90
770;DHT22;368;48.698;9.116;2024-02-26T06:51:21;5.30;99.90
770;DHT22;368;48.698;9.116;2024-02-26T06:53:48;5.30;99.90
770;DHT22;368;48.698;9.116;2024-02-26T06:56:17;5.30;99.90
770;DHT22;368;48.698;9.116;2024-02-26T06:58:43;5.60;99.90
770;DHT22;368;48.698;9.116;2024-02-26T07:01:12;5.50;99.90
770;DHT22;368;48.698;9.116;2024-02-26T07:03:40;5.60;99.90
770;DHT22;368;48.698;9.116;2024-02-26T07:06:07;5.80;99.90
770;DHT22;368;48.698;9.116;2024-02-26T07:08:34;5.70;99.90
770;DHT22;368;48.698;9.116;2024-02-26T07:11:01;5.90;99.90
770;DHT22;368;48.698;9.116;2024-02-26T07:13:29;5.90;99.90
770;DHT22;368;48.698;9.116;2024-02-26T07:15:56;5.70;99.90
770;DHT22;368;48.698;9.116;2024-02-26T07:18:23;6.00;99.90
770;DHT22;368;48.698;9.116;2024-02-26T07:20:50;5.90;99.90
770;DHT22;368;48.698;9.116;2024-02-26T07:23:17;6.00;99.90
770;DHT22;368;48.698;9.116;2024-02-26T07:25:43;6.20;99.90
770;DHT22;368;48.698;9.116;2024-02-26T07:28:12;6.30;99.90
770;DHT22;368;48.698;9.116;2024-02-26T07:30:40;6.30;99.90
770;DHT22;368;48.698;9.116;2024-02-26T07:33:07;6.40;99.90
770;DHT22;368;48.698;9.116;2024-02-26T07:35:33;6.50;99.90
770;DHT22;368;48.698;9.116;2024-02-26T07:38:02;6.60;99.90
770;DHT22;368;48.698;9.116;2024-02-26T07:40:28;6.70;99.90
770;DHT22;368;48.698;9.116;2024-02-26T07:42:55;6.90;99.90
770;DHT22;368;48.698;9.116;2024-02-26T07:45:22;6.90;99.90
770;DHT22;368;48.698;9.116;2024-02-26T07:47:50;7.30;99.90
770;DHT22;368;48.698;9.116;2024-02-26T07:50:17;7.30;99.90
770;DHT22;368;48.698;9.116;2024-02-26T07:52:45;7.40;99.90
770;DHT22;368;48.698;9.116;2024-02-26T07:55:12;7.20;99.90
770;DHT22;368;48.698;9.116;2024-02-26T07:57:42;7.20;99.90
770;DHT22;368;48.698;9.116;2024-02-26T08:00:10;7.40;99.90
770;DHT22;368;48.698;9.116;2024-02-26T08:02:37;7.30;99.90
770;DHT22;368;48.698;9.116;2024-02-26T08:05:05;7.60;99.90
770;DHT22;368;48.698;9.116;2024-02-26T08:07:32;7.60;99.90
770;DHT22;368;48.698;9.116;2024-02-26T08:09:59;7.90;99.90
770;DHT22;368;48.698;9.116;2024-02-26T08:12:26;7.90;99.90
770;DHT22;368;48.698;9.116;2024-02-26T08:14:53;7.80;99.90
770;DHT22;368;48.698;9.116;2024-02-26T08:17:19;7.90;99.90
770;DHT22;368;48.698;9.116;2024-02-26T08:19:46;7.90;99.90
770;DHT22;368;48.698;9.116;2024-02-26T08:22:14;7.90;99.90
770;DHT22;368;48.698;9.116;2024-02-26T08:24:43;7.90;99.90
770;DHT22;368;48.698;9.116;2024-02-26T08:27:10;7.90;99.90
770;DHT22;368;48.698;9.116;2024-02-26T08:29:37;8.10;99.90
770;DHT22;368;48.698;9.116;2024-02-26T08:32:04;8.10;99.90
770;DHT22;368;48.698;9.116;2024-02-26T08:34:32;8.10;99.90
770;DHT22;368;48.698;9.116;2024-02-26T08:36:59;8.20;99.90
770;DHT22;368;48.698;9.116;2024-02-26T08:39:27;8.20;99.90
770;DHT22;368;48.698;9.116;2024-02-26T08:41:54;8.30;99.90
770;DHT22;368;48.698;9.116;2024-02-26T08:44:20;8.40;99.90
770;DHT22;368;48.698;9.116;2024-02-26T08:46:47;8.70;99.90
770;DHT22;368;48.698;9.116;2024-02-26T08:49:16;8.80;99.90
770;DHT22;368;48.698;9.116;2024-02-26T08:51:43;8.60;99.90
770;DHT22;368;48.698;9.116;2024-02-26T08:54:10;8.70;99.90
770;DHT22;368;48.698;9.116;2024-02-26T08:56:39;8.80;99.90
770;DHT22;368;48.698;9.116;2024-02-26T08:59:06;8.50;99.90
770;DHT22;368;48.698;9.116;2024-02-26T09:01:32;8.40;99.90
770;DHT22;368;48.698;9.116;2024-02-26T09:03:59;8.60;99.90
770;DHT22;368;48.698;9.116;2024-02-26T09:06:26;8.80;99.90
770;DHT22;368;48.698;9.116;2024-02-26T09:08:53;9.00;99.90
770;DHT22;368;48.698;9.116;2024-02-26T09:11:19;9.60;99.90
770;DHT22;368;48.698;9.116;2024-02-26T09:13:48;9.10;99.70
770;DHT22;368;48.698;9.116;2024-02-26T09:16:14;9.10;99.90
770;DHT22;368;48.698;9.116;2024-02-26T09:18:41;9.20;99.60
770;DHT22;368;48.698;9.116;2024-02-26T09:21:08;9.30;98.70
770;DHT22;368;48.698;9.116;2024-02-26T09:23:35;9.60;99.30
770;DHT22;368;48.698;9.116;2024-02-26T09:26:02;9.50;97.30
770;DHT22;368;48.698;9.116;2024-02-26T09:28:32;9.70;97.10
770;DHT22;368;48.698;9.116;2024-02-26T09:31:04;9.60;97.10
770;DHT22;368;48.698;9.116;2024-02-26T09:33:31;9.50;96.40
770;DHT22;368;48.698;9.116;2024-02-26T09:35:59;9.60;97.00
770;DHT22;368;48.698;9.116;2024-02-26T09:38:26;9.70;97.20
770;DHT22;368;48.698;9.116;2024-02-26T09:40:53;9.90;97.10
770;DHT22;368;48.698;9.116;2024-02-26T09:43:21;9.70;97.40
770;DHT22;368;48.698;9.116;2024-02-26T09:45:50;9.80;97.50
770;DHT22;368;48.698;9.116;2024-02-26T09:48:18;10.10;96.40
770;DHT22;368;48.698;9.116;2024-02-26T09:50:46;10.80;96.40
770;DHT22;368;48.698;9.116;2024-02-26T09:53:13;11.20;95.90
770;DHT22;368;48.698;9.116;2024-02-26T09:55:40;11.30;94.60
770;DHT22;368;48.698;9.116;2024-02-26T09:58:08;11.70;94.40
770;DHT22;368;48.698;9.116;2024-02-26T10:00:37;11.20;94.20
770;DHT22;368;48.698;9.116;2024-02-26T10:03:05;11.30;94.10
770;DHT22;368;48.698;9.116;2024-02-26T10:05:34;10.80;94.70
770;DHT22;368;48.698;9.116;2024-02-26T10:08:02;11.20;95.40
770;DHT22;368;48.698;9.116;2024-02-26T10:10:30;11.40;94.80
770;DHT22;368;48.698;9.116;2024-02-26T10:13:00;11.40;94.00
770;DHT22;368;48.698;9.116;2024-02-26T10:15:27;11.90;94.10
770;DHT22;368;48.698;9.116;2024-02-26T10:17:53;12.00;93.30
770;DHT22;368;48.698;9.116;2024-02-26T10:20:21;12.60;91.90
770;DHT22;368;48.698;9.116;2024-02-26T10:22:50;13.00;90.10
770;DHT22;368;48.698;9.116;2024-02-26T10:25:18;13.50;89.80
770;DHT22;368;48.698;9.116;2024-02-26T10:27:45;13.70;87.60
770;DHT22;368;48.698;9.116;2024-02-26T10:30:17;12.40;87.90
770;DHT22;368;48.698;9.116;2024-02-26T10:32:45;13.10;90.20
770;DHT22;368;48.698;9.116;2024-02-26T10:35:13;13.30;90.60
770;DHT22;368;48.698;9.116;2024-02-26T10:37:40;13.00;90.80
770;DHT22;368;48.698;9.116;2024-02-26T10:40:10;12.70;91.60
770;DHT22;368;48.698;9.116;2024-02-26T10:42:37;12.20;92.30
770;DHT22;368;48.698;9.116;2024-02-26T10:45:05;12.20;92.50
770;DHT22;368;48.698;9.116;2024-02-26T10:47:32;12.40;92.60
770;DHT22;368;48.698;9.116;2024-02-26T10:49:59;12.40;92.30
770;DHT22;368;48.698;9.116;2024-02-26T10:52:31;12.40;92.40
770;DHT22;368;48.698;9.116;2024-02-26T10:55:00;12.40;92.10
770;DHT22;368;48.698;9.116;2024-02-26T10:57:33;12.00;93.20
770;DHT22;368;48.698;9.116;2024-02-26T11:00:01;12.20;92.00
770;DHT22;368;48.698;9.116;2024-02-26T11:02:31;12.20;91.30
770;DHT22;368;48.698;9.116;2024-02-26T11:04:58;12.90;90.90
770;DHT22;368;48.698;9.116;2024-02-26T11:07:25;13.70;90.00
770;DHT22;368;48.698;9.116;2024-02-26T11:09:53;13.40;89.70
770;DHT22;368;48.698;9.116;2024-02-26T11:12:22;14.00;87.60
770;DHT22;368;48.698;9.116;2024-02-26T11:14:52;14.40;86.80
770;DHT22;368;48.698;9.116;2024-02-26T11:17:21;14.60;85.40
770;DHT22;368;48.698;9.116;2024-02-26T11:19:50;13.90;86.70
770;DHT22;368;48.698;9.116;2024-02-26T11:22:17;13.70;86.30
770;DHT22;368;48.698;9.116;2024-02-26T11:24:47;13.30;87.40
770;DHT22;368;48.698;9.116;2024-02-26T11:27:17;13.30;88.50
770;DHT22;368;48.698;9.116;2024-02-26T11:29:48;13.10;86.70
770;DHT22;368;48.698;9.116;2024-02-26T11:32:18;13.00;88.60
770;DHT22;368;48.698;9.116;2024-02-26T11:34:45;13.30;88.00
770;DHT22;368;48.698;9.116;2024-02-26T11:37:13;13.10;88.00
770;DHT22;368;48.698;9.116;2024-02-26T11:39:40;13.10;88.00
770;DHT22;368;48.698;9.116;2024-02-26T11:42:08;12.70;87.00
770;DHT22;368;48.698;9.116;2024-02-26T11:44:36;13.00;88.00
770;DHT22;368;48.698;9.116;2024-02-26T11:47:10;13.00;85.90
770;DHT22;368;48.698;9.116;2024-02-26T11:49:38;13.30;86.50
770;DHT22;368;48.698;9.116;2024-02-26T11:52:07;12.80;84.70
770;DHT22;368;48.698;9.116;2024-02-26T11:54:47;13.00;86.60
770;DHT22;368;48.698;9.116;2024-02-26T11:57:22;13.10;85.90
770;DHT22;368;48.698;9.116;2024-02-26T11:59:49;13.40;87.00
770;DHT22;368;48.698;9.116;2024-02-26T12:02:40;13.30;85.50
770;DHT22;368;48.698;9.116;2024-02-26T12:05:11;13.40;86.80
770;DHT22;368;48.698;9.116;2024-02-26T12:07:40;13.30;85.50
770;DHT22;368;48.698;9.116;2024-02-26T12:10:15;13.20;85.60
770;DHT22;368;48.698;9.116;2024-02-26T12:12:42;12.60;85.00
770;DHT22;368;48.698;9.116;2024-02-26T12:15:09;12.30;87.40
770;DHT22;368;48.698;9.116;2024-02-26T12:17:36;12.10;88.80
770;DHT22;368;48.698;9.116;2024-02-26T12:20:11;12.10;88.80
770;DHT22;368;48.698;9.116;2024-02-26T12:22:39;12.00;90.10
770;DHT22;368;48.698;9.116;2024-02-26T12:25:08;12.10;89.20
770;DHT22;368;48.698;9.116;2024-02-26T12:27:35;12.20;88.20
770;DHT22;368;48.698;9.116;2024-02-26T12:30:03;12.40;88.90
770;DHT22;368;48.698;9.116;2024-02-26T12:32:30;13.30;87.70
770;DHT22;368;48.698;9.116;2024-02-26T12:34:57;14.10;85.20
770;DHT22;368;48.698;9.116;2024-02-26T12:37:25;14.80;82.70
770;DHT22;368;48.698;9.116;2024-02-26T12:39:52;15.40;79.20
770;DHT22;368;48.698;9.116;2024-02-26T12:42:19;15.30;80.40
770;DHT22;368;48.698;9.116;2024-02-26T12:44:46;16.30;78.50
770;DHT22;368;48.698;9.116;2024-02-26T12:47:13;16.00;77.00
770;DHT22;368;48.698;9.116;2024-02-26T12:49:42;15.80;76.10
770;DHT22;368;48.698;9.116;2024-02-26T12:52:10;15.70;78.30
770;DHT22;368;48.698;9.116;2024-02-26T12:54:38;14.80;79.80
770;DHT22;368;48.698;9.116;2024-02-26T12:57:08;15.40;79.50
770;DHT22;368;48.698;9.116;2024-02-26T12:59:36;15.40;78.50
770;DHT22;368;48.698;9.116;2024-02-26T13:02:04;14.60;79.40
770;DHT22;368;48.698;9.116;2024-02-26T13:04:31;14.20;81.30
770;DHT22;368;48.698;9.116;2024-02-26T13:06:59;14.90;81.20
770;DHT22;368;48.698;9.116;2024-02-26T13:09:30;15.10;81.10
770;DHT22;368;48.698;9.116;2024-02-26T13:11:59;15.00;80.30
770;DHT22;368;48.698;9.116;2024-02-26T13:14:26;14.80;79.30
770;DHT22;368;48.698;9.116;2024-02-26T13:16:56;14.50;80.10
770;DHT22;368;48.698;9.116;2024-02-26T13:19:23;14.90;80.50
770;DHT22;368;48.698;9.116;2024-02-26T13:21:50;14.90;80.10
770;DHT22;368;48.698;9.116;2024-02-26T13:24:19;15.20;79.10
770;DHT22;368;48.698;9.116;2024-02-26T13:26:46;15.30;79.70
770;DHT22;368;48.698;9.116;2024-02-26T13:29:18;15.40;79.30
770;DHT22;368;48.698;9.116;2024-02-26T13:31:45;15.60;77.40
770;DHT22;368;48.698;9.116;2024-02-26T13:34:23;15.60;77.40
770;DHT22;368;48.698;9.116;2024-02-26T13:36:50;15.90;77.00
770;DHT22;368;48.698;9.116;2024-02-26T13:39:22;15.60;76.60
770;DHT22;368;48.698;9.116;2024-02-26T13:41:49;16.30;77.30
770;DHT22;368;48.698;9.116;2024-02-26T13:44:17;17.00;75.60
770;DHT22;368;48.698;9.116;2024-02-26T13:46:44;16.20;73.50
770;DHT22;368;48.698;9.116;2024-02-26T13:49:11;15.50;76.00
770;DHT22;368;48.698;9.116;2024-02-26T13:51:38;15.70;75.00
770;DHT22;368;48.698;9.116;2024-02-26T13:54:04;15.50;76.50
770;DHT22;368;48.698;9.116;2024-02-26T13:56:32;16.10;76.30
770;DHT22;368;48.698;9.116;2024-02-26T13:58:59;16.70;75.70
770;DHT22;368;48.698;9.116;2024-02-26T14:01:27;16.20;76.40
770;DHT22;368;48.698;9.116;2024-02-26T14:03:54;16.30;76.30
770;DHT22;368;48.698;9.116;2024-02-26T14:06:22;17.00;75.80
770;DHT22;368;48.698;9.116;2024-02-26T14:08:49;17.70;73.40
770;DHT22;368;48.698;9.116;2024-02-26T14:11:16;17.90;73.20
770;DHT22;368;48.698;9.116;2024-02-26T14:13:43;18.80;70.50
770;DHT22;368;48.698;9.116;2024-02-26T14:16:12;17.90;71.40
770;DHT22;368;48.698;9.116;2024-02-26T14:18:40;17.40;72.10
770;DHT22;368;48.698;9.116;2024-02-26T14:21:09;17.60;72.00
770;DHT22;368;48.698;9.116;2024-02-26T14:23:36;17.20;72.20
770;DHT22;368;48.698;9.116;2024-02-26T14:26:03;18.20;71.40
770;DHT22;368;48.698;9.116;2024-02-26T14:28:30;18.20;69.90
770;DHT22;368;48.698;9.116;2024-02-26T14:30:58;18.60;69.60
770;DHT22;368;48.698;9.116;2024-02-26T14:33:25;18.90;68.70
770;DHT22;368;48.698;9.116;2024-02-26T14:35:53;18.70;68.50
770;DHT22;368;48.698;9.116;2024-02-26T14:38:20;17.90;69.20
770;DHT22;368;48.698;9.116;2024-02-26T14:40:48;16.70;71.50
770;DHT22;368;48.698;9.116;2024-02-26T14:43:15;16.30;73.50
770;DHT22;368;48.698;9.116;2024-02-26T14:45:42;16.10;74.30
770;DHT22;368;48.698;9.116;2024-02-26T14:48:09;15.90;75.00
770;DHT22;368;48.698;9.116;2024-02-26T14:50:36;15.30;77.00
770;DHT22;368;48.698;9.116;2024-02-26T14:53:05;15.10;78.30
770;DHT22;368;48.698;9.116;2024-02-26T14:55:32;15.10;79.10
770;DHT22;368;48.698;9.116;2024-02-26T14:58:00;15.00;78.40
770;DHT22;368;48.698;9.116;2024-02-26T15:00:26;14.20;80.60
770;DHT22;368;48.698;9.116;2024-02-26T15:02:53;13.90;82.90
770;DHT22;368;48.698;9.116;2024-02-26T15:05:21;13.60;84.60
770;DHT22;368;48.698;9.116;2024-02-26T15:07:48;13.60;82.10
770;DHT22;368;48.698;9.116;2024-02-26T15:10:16;13.60;84.30
770;DHT22;368;48.698;9.116;2024-02-26T15:12:44;13.30;83.60
770;DHT22;368;48.698;9.116;2024-02-26T15:15:11;13.80;84.40
770;DHT22;368;48.698;9.116;2024-02-26T15:17:37;13.70;83.80
770;DHT22;368;48.698;9.116;2024-02-26T15:20:05;13.40;83.10
770;DHT22;368;48.698;9.116;2024-02-26T15:22:33;13.40;84.80
770;DHT22;368;48.698;9.116;2024-02-26T15:25:00;13.10;83.00
770;DHT22;368;48.698;9.116;2024-02-26T15:27:28;12.80;83.60
770;DHT22;368;48.698;9.116;2024-02-26T15:29:55;12.50;86.10
770;DHT22;368;48.698;9.116;2024-02-26T15:32:24;12.50;87.00
770;DHT22;368;48.698;9.116;2024-02-26T15:34:52;12.50;86.60
770;DHT22;368;48.698;9.116;2024-02-26T15:37:19;12.50;87.90
770;DHT22;368;48.698;9.116;2024-02-26T15:39:46;12.30;86.70
770;DHT22;368;48.698;9.116;2024-02-26T15:42:13;12.00;87.50
770;DHT22;368;48.698;9.116;2024-02-26T15:44:41;12.00;89.70
770;DHT22;368;48.698;9.116;2024-02-26T15:47:08;12.20;89.80
770;DHT22;368;48.698;9.116;2024-02-26T15:49:35;12.10;90.30
770;DHT22;368;48.698;9.116;2024-02-26T15:52:01;11.70;90.20
770;DHT22;368;48.698;9.116;2024-02-26T15:54:29;11.80;90.70
770;DHT22;368;48.698;9.116;2024-02-26T15:56:56;11.70;90.80
770;DHT22;368;48.698;9.116;2024-02-26T15:59:23;11.60;90.80
770;DHT22;368;48.698;9.116;2024-02-26T16:01:51;11.40;90.80
770;DHT22;368;48.698;9.116;2024-02-26T16:04:18;11.30;90.80
770;DHT22;368;48.698;9.116;2024-02-26T16:06:48;11.40;90.80
770;DHT22;368;48.698;9.116;2024-02-26T16:09:15;11.40;91.10
770;DHT22;368;48.698;9.116;2024-02-26T16:11:42;11.20;91.20
770;DHT22;368;48.698;9.116;2024-02-26T16:14:16;11.20;91.50
770;DHT22;368;48.698;9.116;2024-02-26T16:16:52;11.50;91.50
770;DHT22;368;48.698;9.116;2024-02-26T16:19:22;11.10;91.70
770;DHT22;368;48.698;9.116;2024-02-26T16:21:49;11.30;92.00
770;DHT22;368;48.698;9.116;2024-02-26T16:24:16;10.90;92.30
770;DHT22;368;48.698;9.116;2024-02-26T16:26:43;10.90;93.10
770;DHT22;368;48.698;9.116;2024-02-26T16:29:09;10.90;93.10
770;DHT22;368;48.698;9.116;2024-02-26T16:31:36;10.80;93.30
770;DHT22;368;48.698;9.116;2024-02-26T16:34:04;10.90;93.80
770;DHT22;368;48.698;9.116;2024-02-26T16:36:31;10.80;93.60
770;DHT22;368;48.698;9.116;2024-02-26T16:38:58;10.90;93.70
770;DHT22;368;48.698;9.116;2024-02-26T16:41:25;10.80;93.80
770;DHT22;368;48.698;9.116;2024-02-26T16:43:52;10.60;94.30
770;DHT22;368;48.698;9.116;2024-02-26T16:46:19;10.70;94.30